Startpagina
METAR-TAF:

METAR-TAF

Vliegvelden :

Natal, Rio Grande do Norte, Brazilië

breedte: 05-55S, lengte: 035-15W, hoogte: 52 m

Actueel weer

Dit bericht is 1 uur en het 8 minuten geleden gemaakt, om 08:00 UTC
Wind 4 kt uit het zuiden
Temperatuur 22°C
Vochtigheid 88%
Druk 1015 hPa
Zicht 10 km of meer
Weinig wolken op 1800 ft

METAR: SBNT 170800Z 17004KT 9999 FEW018 22/20 Q1015

Tijdstip: 06:08 (09:08 UTC)

Verwachting

Dit bericht is 5 uur en het 8 minuten geleden gemaakt, om 04:00 UTC
Verwachting geldig van 17 om 06 UTC tot 17 om 18 UTC
Wind 8 kt uit het zuiden
Zicht 10 km of meer
geen wolken onder 1500 m en geen cumulonimbus
Wijzigt naar
van 17 om 10 UTC tot 17 om 12 UTC
Zicht 10 km of meer
Verspreide wolken op 2300 ft

TAF: SBNT 170400Z 1706/1718 17008KT CAVOK TN23/1710Z TX29/1717Z BECMG 1710/1712 9999 SCT023 RMK PEM

Waarnemingen en weersverwachtingen van meer dan 4000 vliegvelden (METAR en TAF).

De beschikbare stations zijn de gele en rode punten op de kaart.

Ga met uw muis naar het station om de naam te zien.

Klik dan om waarnemingen en weersverwachtingen te zien.

kaart wijzigen: klik op de groene knoppen met een zwart kruis om in te zoomen, op de groene knop met een streepje om uit te zoomen of op de groene pijlen voor aangrenzende kaarten.


METAR-TAF: